Forside
METAR-TAF:

METAR-TAF

Lufthavne :

Bangkok, Thailand

Breddekreds: 13-54-45N, længdekreds: 100-36-24E, højde: 4 m

Aktuelle vejr

Denne rapport blev lavet for 26 minutter siden, kl. 00:30 UTC
Vind 7 kt fra sydsydvest
Temperatur 28°C
Fugtighed 79%
Tryk 1003 hPa
Sigt 10 km eller mere
Nogle få skyer i en højde af 2000 ft
Spredte skyer i en højde af 3500 ft

METAR: VTBD 180030Z 21007KT 9999 FEW020 SCT035 28/24 Q1003 NOSIG

Tid: 07:56 (00:56 UTC)

Vejrudsigter

Denne rapport blev lavet for 1 time og 56 minutter siden, kl. 23:00 UTC
Foreløbig gælder fra 18 på 00 UTC til 19 på 06 UTC
Vind 8 kt fra sydvest
Sigt 10 km eller mere
Nogle få skyer i en højde af 2000 ft

TAF: VTBD 172300Z 1800/1906 22008KT 9999 FEW020

Vejrobservationer og prognoser fra mere end 4000 lufthavne (METAR og TAF).

De gule og røde prikker repræsenterer de meteorologiske stationer.

Flyt musen over at se navnet på stationen.

Så klik over at se vejr observationer og prognoser.

At skifte det kort: Klik på de grønne knapper med et sort kors for at zoome ind; på den grønne knap med en bindestreg for at zoome ud; eller på de grønne pile for tilstødende kort.


METAR-TAF: